Time;durP1;ratioP1;P1;durP2;ratioP2;P2;SDS_P1;SDS_P2;PMS_P1;PMS_P2;Temp;Humidity;BMP_temperature;BMP_pressure;BME280_temperature;BME280_humidity;BME280_pressure;Samples;Min_cycle;Max_cycle;Signal;HPM_P1;HPM_P2
2021/05/25 00:00:21;;;;;;;0.80;0.25;;;;;;;;;;5072323;28;20037;-80
2021/05/25 00:02:46;;;;;;;0.38;0.10;;;;;;;;;;5072640;28;20111;-79
2021/05/25 00:05:14;;;;;;;1.08;0.10;;;;;;;;;;5055957;28;20039;-79
2021/05/25 00:07:40;;;;;;;0.95;0.20;;;;;;;;;;5072020;28;20025;-79
2021/05/25 00:10:06;;;;;;;0.50;0.20;;;;;;;;;;5072220;28;20052;-79
2021/05/25 00:12:31;;;;;;;2.03;0.68;;;;;;;;;;5072286;28;20040;-79
2021/05/25 00:14:57;;;;;;;0.65;0.20;;;;;;;;;;5072033;28;20048;-79
2021/05/25 00:17:22;;;;;;;0.65;0.20;;;;;;;;;;5072333;28;20396;-79
2021/05/25 00:19:48;;;;;;;0.52;0.20;;;;;;;;;;5088933;28;20554;-82
2021/05/25 00:22:13;;;;;;;1.08;0.60;;;;;;;;;;5045232;28;20077;-82
2021/05/25 00:24:39;;;;;;;1.52;0.40;;;;;;;;;;5052278;28;20114;-80
2021/05/25 00:27:05;;;;;;;0.68;0.20;;;;;;;;;;5052209;28;20033;-81
2021/05/25 00:29:30;;;;;;;1.83;0.35;;;;;;;;;;5051894;28;20079;-81
2021/05/25 00:31:56;;;;;;;0.77;0.30;;;;;;;;;;5085471;28;20033;-81
2021/05/25 00:34:21;;;;;;;0.90;0.20;;;;;;;;;;5052022;28;20123;-81
2021/05/25 00:36:47;;;;;;;2.47;0.60;;;;;;;;;;5051371;28;20045;-81
2021/05/25 00:39:12;;;;;;;0.38;0.10;;;;;;;;;;5051620;28;20033;-81
2021/05/25 00:41:37;;;;;;;2.78;0.93;;;;;;;;;;5052079;28;20399;-80
2021/05/25 00:44:04;;;;;;;1.58;0.25;;;;;;;;;;5068117;28;20044;-80
2021/05/25 00:46:30;;;;;;;1.55;0.20;;;;;;;;;;5051425;28;20063;-80
2021/05/25 00:48:56;;;;;;;1.15;0.20;;;;;;;;;;5068151;28;20045;-80
2021/05/25 00:51:21;;;;;;;1.13;0.20;;;;;;;;;;5068494;28;20372;-80
2021/05/25 00:53:47;;;;;;;1.20;0.20;;;;;;;;;;5051403;28;20067;-80
2021/05/25 00:56:12;;;;;;;0.75;0.20;;;;;;;;;;5051847;28;20398;-81
2021/05/25 00:58:38;;;;;;;0.77;0.20;;;;;;;;;;5068008;28;20037;-80
2021/05/25 01:01:03;;;;;;;1.55;0.15;;;;;;;;;;5051663;28;20388;-80
2021/05/25 01:03:29;;;;;;;1.20;0.20;;;;;;;;;;5051526;28;20472;-81
2021/05/25 01:05:54;;;;;;;0.55;0.10;;;;;;;;;;5067646;28;20029;-82
2021/05/25 01:08:21;;;;;;;1.02;0.30;;;;;;;;;;5051452;28;20098;-81
2021/05/25 01:10:54;;;;;;;1.63;0.20;;;;;;;;;;5068015;28;20045;-81
2021/05/25 01:13:23;;;;;;;0.40;0.10;;;;;;;;;;5051235;28;20047;-82
2021/05/25 01:15:49;;;;;;;0.63;0.20;;;;;;;;;;5067767;28;20487;-81
2021/05/25 01:18:14;;;;;;;0.90;0.30;;;;;;;;;;5051071;28;20041;-81
2021/05/25 01:20:41;;;;;;;1.73;0.10;;;;;;;;;;5050597;28;20043;-81
2021/05/25 01:23:10;;;;;;;1.05;0.22;;;;;;;;;;5034536;28;20454;-81
2021/05/25 01:25:38;;;;;;;0.95;0.30;;;;;;;;;;5018190;28;20039;-81
2021/05/25 01:28:05;;;;;;;1.10;0.50;;;;;;;;;;5018000;28;20068;-81
2021/05/25 01:30:33;;;;;;;1.40;0.40;;;;;;;;;;5033998;28;20102;-81
2021/05/25 01:32:58;;;;;;;1.17;0.20;;;;;;;;;;5033998;28;20037;-80
2021/05/25 01:35:24;;;;;;;1.20;0.28;;;;;;;;;;5047145;28;20557;-80
2021/05/25 01:37:50;;;;;;;0.90;0.20;;;;;;;;;;5030716;28;20040;-81
2021/05/25 01:40:16;;;;;;;0.82;0.20;;;;;;;;;;5030849;28;20037;-81
2021/05/25 01:42:41;;;;;;;0.80;0.30;;;;;;;;;;5030914;28;20033;-82
2021/05/25 01:45:08;;;;;;;0.45;0.22;;;;;;;;;;5030574;28;20029;-83
2021/05/25 01:47:34;;;;;;;1.27;0.47;;;;;;;;;;5030555;28;20068;-82
2021/05/25 01:50:12;;;;;;;1.83;0.38;;;;;;;;;;5016847;28;20025;-82
2021/05/25 01:52:39;;;;;;;0.70;0.30;;;;;;;;;;5067216;28;20438;-82
2021/05/25 01:55:07;;;;;;;0.93;0.40;;;;;;;;;;5050728;28;20124;-82
2021/05/25 01:57:33;;;;;;;1.02;0.30;;;;;;;;;;5050800;28;20032;-81
2021/05/25 01:59:58;;;;;;;1.08;0.40;;;;;;;;;;5066865;28;20051;-81
2021/05/25 02:02:24;;;;;;;1.33;0.30;;;;;;;;;;5033261;28;20421;-81
2021/05/25 02:04:49;;;;;;;0.60;0.20;;;;;;;;;;5033595;28;20442;-81
2021/05/25 02:07:18;;;;;;;1.05;0.40;;;;;;;;;;5033667;28;20454;-81
2021/05/25 02:09:43;;;;;;;0.95;0.28;;;;;;;;;;5016981;28;20110;-81
2021/05/25 02:12:15;;;;;;;0.63;0.20;;;;;;;;;;5033380;28;20522;-81
2021/05/25 02:14:40;;;;;;;0.40;0.10;;;;;;;;;;5033215;28;20502;-82
2021/05/25 02:17:06;;;;;;;0.70;0.20;;;;;;;;;;5033129;28;20064;-82
2021/05/25 02:19:31;;;;;;;0.95;0.30;;;;;;;;;;5033573;28;20387;-83
2021/05/25 02:21:56;;;;;;;0.47;0.20;;;;;;;;;;5033184;28;20037;-81
2021/05/25 02:24:22;;;;;;;1.35;0.30;;;;;;;;;;5050378;28;20461;-81
2021/05/25 02:26:47;;;;;;;3.38;1.10;;;;;;;;;;5050001;28;20106;-81
2021/05/25 02:29:13;;;;;;;0.68;0.20;;;;;;;;;;5049936;28;20446;-81
2021/05/25 02:31:40;;;;;;;1.55;0.30;;;;;;;;;;5033089;28;20458;-78
2021/05/25 02:34:05;;;;;;;0.75;0.20;;;;;;;;;;5050298;28;20040;-77
2021/05/25 02:36:31;;;;;;;0.43;0.10;;;;;;;;;;5049951;28;20044;-80
2021/05/25 02:38:56;;;;;;;0.38;0.10;;;;;;;;;;5033291;28;20473;-80
2021/05/25 02:41:21;;;;;;;0.82;0.20;;;;;;;;;;5049965;28;20120;-80
2021/05/25 02:43:49;;;;;;;0.22;0.10;;;;;;;;;;5049680;28;20473;-80
2021/05/25 02:46:15;;;;;;;1.88;0.52;;;;;;;;;;5033024;28;20028;-80
2021/05/25 02:48:40;;;;;;;1.08;0.20;;;;;;;;;;5049946;28;20077;-80
2021/05/25 02:51:06;;;;;;;0.60;0.20;;;;;;;;;;5046223;28;20463;-80
2021/05/25 02:53:31;;;;;;;1.35;0.20;;;;;;;;;;5013586;28;20422;-80
2021/05/25 02:55:57;;;;;;;1.05;0.10;;;;;;;;;;5029903;28;20030;-80
2021/05/25 02:58:22;;;;;;;0.50;0.08;;;;;;;;;;5033072;28;20037;-80
2021/05/25 03:00:47;;;;;;;1.35;0.13;;;;;;;;;;5053327;28;20040;-79
2021/05/25 03:03:13;;;;;;;1.15;0.30;;;;;;;;;;5020956;28;20222;-79
2021/05/25 03:05:39;;;;;;;0.45;0.15;;;;;;;;;;5054085;28;20029;-80
2021/05/25 03:08:05;;;;;;;1.67;0.20;;;;;;;;;;5037209;28;20048;-79
2021/05/25 03:10:32;;;;;;;0.73;0.15;;;;;;;;;;5037314;28;20135;-79
2021/05/25 03:12:58;;;;;;;0.57;0.20;;;;;;;;;;5036980;28;20036;-79
2021/05/25 03:15:28;;;;;;;1.85;0.28;;;;;;;;;;5020268;28;20033;-79
2021/05/25 03:17:54;;;;;;;1.33;0.20;;;;;;;;;;5020947;28;20080;-79
2021/05/25 03:20:19;;;;;;;1.95;0.20;;;;;;;;;;5020178;28;20100;-79
2021/05/25 03:22:45;;;;;;;0.63;0.13;;;;;;;;;;5036809;28;20139;-79
2021/05/25 03:25:11;;;;;;;0.73;0.10;;;;;;;;;;5036669;28;20067;-79
2021/05/25 03:27:36;;;;;;;0.55;0.10;;;;;;;;;;5036681;28;20036;-78
2021/05/25 03:30:06;;;;;;;0.82;0.20;;;;;;;;;;5052723;28;20115;-79
2021/05/25 03:32:31;;;;;;;1.02;0.20;;;;;;;;;;5036543;28;20049;-79
2021/05/25 03:34:57;;;;;;;1.42;0.17;;;;;;;;;;5036665;28;20025;-79
2021/05/25 03:37:22;;;;;;;1.08;0.30;;;;;;;;;;5070008;28;20097;-79
2021/05/25 03:39:48;;;;;;;1.10;0.20;;;;;;;;;;5052870;28;20113;-79
2021/05/25 03:42:13;;;;;;;1.40;0.13;;;;;;;;;;5036090;28;20040;-79
2021/05/25 03:44:38;;;;;;;0.98;0.20;;;;;;;;;;5052506;28;20453;-79
2021/05/25 03:47:04;;;;;;;0.43;0.10;;;;;;;;;;5052660;28;20037;-79
2021/05/25 03:49:29;;;;;;;1.50;0.20;;;;;;;;;;5069603;28;20431;-79
2021/05/25 03:51:55;;;;;;;1.33;0.73;;;;;;;;;;5052638;28;20047;-79
2021/05/25 03:54:28;;;;;;;0.82;0.10;;;;;;;;;;5036146;28;20498;-79
2021/05/25 03:57:00;;;;;;;1.38;0.13;;;;;;;;;;5052659;28;20576;-80
2021/05/25 03:59:25;;;;;;;0.60;0.10;;;;;;;;;;5068479;28;20410;-80
2021/05/25 04:01:51;;;;;;;0.63;0.15;;;;;;;;;;5035914;28;20041;-82
2021/05/25 04:04:17;;;;;;;1.13;0.10;;;;;;;;;;5035737;28;20040;-82
2021/05/25 04:06:42;;;;;;;0.70;0.10;;;;;;;;;;5035928;28;20029;-83
2021/05/25 04:09:08;;;;;;;0.40;0.10;;;;;;;;;;5035775;28;20051;-82
2021/05/25 04:11:34;;;;;;;1.13;0.30;;;;;;;;;;5035082;28;20418;-82
2021/05/25 04:14:00;;;;;;;1.20;0.22;;;;;;;;;;5018500;28;20248;-82
2021/05/25 04:16:27;;;;;;;2.05;0.17;;;;;;;;;;5018649;28;20040;-82
2021/05/25 04:18:52;;;;;;;0.68;0.10;;;;;;;;;;5035185;28;20112;-81
2021/05/25 04:21:18;;;;;;;2.35;0.20;;;;;;;;;;5035390;28;20175;-82
2021/05/25 04:23:43;;;;;;;1.75;0.10;;;;;;;;;;5035544;28;20029;-82
2021/05/25 04:26:09;;;;;;;0.93;0.20;;;;;;;;;;5035556;28;20033;-82
2021/05/25 04:28:34;;;;;;;3.15;0.30;;;;;;;;;;5034524;28;20037;-82
2021/05/25 04:31:00;;;;;;;1.88;0.38;;;;;;;;;;5051482;28;20114;-81
2021/05/25 04:33:26;;;;;;;0.90;0.17;;;;;;;;;;5034324;28;20150;-81
2021/05/25 04:35:52;;;;;;;1.65;0.20;;;;;;;;;;5034953;28;20175;-81
2021/05/25 04:38:17;;;;;;;1.25;0.30;;;;;;;;;;5051062;28;20485;-81
2021/05/25 04:40:44;;;;;;;1.13;0.22;;;;;;;;;;5051543;28;20045;-81
2021/05/25 04:43:10;;;;;;;0.68;0.10;;;;;;;;;;5051637;28;20072;-80
2021/05/25 04:45:37;;;;;;;1.02;0.20;;;;;;;;;;5051712;28;20041;-80
2021/05/25 04:48:03;;;;;;;0.95;0.20;;;;;;;;;;5051937;28;20414;-80
2021/05/25 04:50:29;;;;;;;0.68;0.10;;;;;;;;;;5031293;28;20064;-80
2021/05/25 04:52:54;;;;;;;0.65;0.10;;;;;;;;;;5015113;28;20407;-80
2021/05/25 04:55:20;;;;;;;0.63;0.20;;;;;;;;;;5031737;28;20397;-80
2021/05/25 04:57:46;;;;;;;0.30;0.00;;;;;;;;;;5018369;28;20048;-80
2021/05/25 05:00:16;;;;;;;0.93;0.25;;;;;;;;;;5071383;28;20036;-80
2021/05/25 05:02:41;;;;;;;1.45;0.20;;;;;;;;;;5071458;28;20086;-80
2021/05/25 05:05:07;;;;;;;2.22;0.20;;;;;;;;;;5088477;28;20399;-78
2021/05/25 05:07:33;;;;;;;0.65;0.10;;;;;;;;;;5052080;28;20047;-80
2021/05/25 05:09:58;;;;;;;1.88;0.20;;;;;;;;;;5085804;28;20123;-79
2021/05/25 05:12:25;;;;;;;1.30;0.20;;;;;;;;;;5050855;28;20035;-79
2021/05/25 05:14:51;;;;;;;1.95;0.20;;;;;;;;;;5067700;28;20037;-80
2021/05/25 05:17:18;;;;;;;0.98;0.20;;;;;;;;;;5050818;28;20426;-77
2021/05/25 05:19:43;;;;;;;0.80;0.20;;;;;;;;;;5050879;28;20139;-77
2021/05/25 05:22:09;;;;;;;0.82;0.10;;;;;;;;;;5050072;28;20384;-77
2021/05/25 05:24:35;;;;;;;0.60;0.20;;;;;;;;;;5050937;28;20064;-77
2021/05/25 05:27:00;;;;;;;2.85;0.45;;;;;;;;;;5034099;28;20124;-77
2021/05/25 05:29:25;;;;;;;0.30;0.00;;;;;;;;;;5050517;28;20488;-77
2021/05/25 05:31:51;;;;;;;3.38;0.30;;;;;;;;;;5033996;28;20415;-77
2021/05/25 05:34:16;;;;;;;0.47;0.20;;;;;;;;;;5050629;28;20449;-77
2021/05/25 05:36:42;;;;;;;3.20;0.68;;;;;;;;;;5067356;28;20380;-77
2021/05/25 05:39:07;;;;;;;3.72;0.70;;;;;;;;;;5050774;28;20449;-77
2021/05/25 05:41:33;;;;;;;3.45;0.40;;;;;;;;;;5051061;28;20048;-77
2021/05/25 05:43:58;;;;;;;1.52;0.25;;;;;;;;;;5050439;28;20120;-77
2021/05/25 05:46:26;;;;;;;4.88;0.50;;;;;;;;;;5034136;28;20040;-78
2021/05/25 05:48:52;;;;;;;1.58;0.50;;;;;;;;;;5050331;28;20051;-78
2021/05/25 05:51:17;;;;;;;4.28;0.63;;;;;;;;;;5047466;28;20045;-79
2021/05/25 05:53:43;;;;;;;3.80;0.38;;;;;;;;;;5047364;28;20030;-80
2021/05/25 05:56:08;;;;;;;2.28;0.28;;;;;;;;;;5047060;28;20063;-79
2021/05/25 05:58:34;;;;;;;5.82;0.90;;;;;;;;;;5063503;28;20067;-78
2021/05/25 06:00:59;;;;;;;2.47;0.30;;;;;;;;;;5038960;28;20044;-78
2021/05/25 06:03:25;;;;;;;2.05;0.30;;;;;;;;;;5017346;28;20406;-79
2021/05/25 06:05:50;;;;;;;2.75;0.30;;;;;;;;;;5049930;28;20119;-79
2021/05/25 06:08:17;;;;;;;3.03;0.55;;;;;;;;;;5032344;28;20477;-81
2021/05/25 06:10:50;;;;;;;2.38;0.30;;;;;;;;;;5031178;28;20041;-80
2021/05/25 06:13:15;;;;;;;2.00;0.50;;;;;;;;;;5015588;28;20029;-80
2021/05/25 06:15:41;;;;;;;19.90;3.90;;;;;;;;;;5033454;28;20044;-80
2021/05/25 06:18:06;;;;;;;7.78;1.50;;;;;;;;;;5049999;28;20041;-80
2021/05/25 06:20:31;;;;;;;5.00;0.93;;;;;;;;;;5033115;28;20421;-79
2021/05/25 06:22:57;;;;;;;7.00;1.00;;;;;;;;;;5033562;28;20490;-79
2021/05/25 06:25:22;;;;;;;6.38;1.83;;;;;;;;;;5049902;28;20029;-78
2021/05/25 06:27:48;;;;;;;2.80;0.88;;;;;;;;;;5033600;28;20380;-78
2021/05/25 06:30:17;;;;;;;5.80;0.70;;;;;;;;;;5033190;28;20044;-78
2021/05/25 06:32:43;;;;;;;4.35;0.70;;;;;;;;;;5017726;28;20075;-78
2021/05/25 06:35:08;;;;;;;3.40;1.00;;;;;;;;;;5034650;28;20110;-78
2021/05/25 06:37:34;;;;;;;3.35;1.58;;;;;;;;;;5050654;28;20061;-78
2021/05/25 06:39:59;;;;;;;3.42;1.27;;;;;;;;;;5050786;28;20500;-77
2021/05/25 06:42:25;;;;;;;5.35;1.90;;;;;;;;;;5067181;28;20034;-77
2021/05/25 06:44:50;;;;;;;5.00;2.20;;;;;;;;;;5065153;28;20423;-76
2021/05/25 06:47:16;;;;;;;5.25;2.33;;;;;;;;;;5065648;28;20036;-77
2021/05/25 06:49:41;;;;;;;5.20;2.25;;;;;;;;;;5051934;28;20044;-76
2021/05/25 06:52:12;;;;;;;4.80;2.20;;;;;;;;;;5067377;28;20399;-76
2021/05/25 06:54:50;;;;;;;3.67;1.52;;;;;;;;;;5047632;28;20040;-77
2021/05/25 06:57:15;;;;;;;3.33;1.63;;;;;;;;;;5059000;28;20047;-77
2021/05/25 06:59:41;;;;;;;3.03;1.17;;;;;;;;;;5056088;28;20049;-77
2021/05/25 07:02:06;;;;;;;5.55;2.08;;;;;;;;;;5080793;28;20039;-76
2021/05/25 07:04:32;;;;;;;4.10;1.58;;;;;;;;;;5072902;28;20032;-77
2021/05/25 07:06:57;;;;;;;3.88;1.33;;;;;;;;;;5027113;28;20041;-77
2021/05/25 07:09:23;;;;;;;2.58;0.95;;;;;;;;;;5053530;28;20518;-79
2021/05/25 07:11:48;;;;;;;5.95;1.23;;;;;;;;;;5070125;28;20430;-81
2021/05/25 07:14:14;;;;;;;6.32;1.33;;;;;;;;;;5036620;28;20025;-82
2021/05/25 07:16:39;;;;;;;13.40;2.33;;;;;;;;;;5033076;28;20492;-81
2021/05/25 07:19:05;;;;;;;5.55;1.40;;;;;;;;;;5047575;28;20037;-80
2021/05/25 07:21:30;;;;;;;6.95;2.13;;;;;;;;;;5019640;28;20072;-79
2021/05/25 07:23:56;;;;;;;10.50;2.00;;;;;;;;;;5019777;28;20450;-80
2021/05/25 07:26:22;;;;;;;4.10;1.38;;;;;;;;;;5036359;28;20041;-81
2021/05/25 07:28:47;;;;;;;13.15;2.58;;;;;;;;;;5055728;28;20411;-79
2021/05/25 07:31:13;;;;;;;10.45;2.30;;;;;;;;;;5056018;28;20032;-79
2021/05/25 07:33:38;;;;;;;8.80;2.72;;;;;;;;;;5072869;28;20103;-81
2021/05/25 07:36:04;;;;;;;13.48;2.63;;;;;;;;;;5050039;28;20056;-79
2021/05/25 07:38:30;;;;;;;9.10;1.77;;;;;;;;;;5060189;28;20029;-79
2021/05/25 07:40:55;;;;;;;7.25;1.70;;;;;;;;;;5082574;28;20042;-80
2021/05/25 07:43:20;;;;;;;6.47;1.65;;;;;;;;;;5065935;28;20045;-79
2021/05/25 07:45:46;;;;;;;5.47;1.80;;;;;;;;;;5048659;28;20534;-80
2021/05/25 07:48:12;;;;;;;4.90;1.30;;;;;;;;;;5066078;28;20036;-81
2021/05/25 07:50:37;;;;;;;4.80;1.23;;;;;;;;;;5065433;28;20406;-80
2021/05/25 07:53:02;;;;;;;5.55;1.38;;;;;;;;;;5069007;28;20384;-82
2021/05/25 07:55:30;;;;;;;6.80;1.48;;;;;;;;;;5020145;28;20037;-83
2021/05/25 07:57:56;;;;;;;5.68;1.67;;;;;;;;;;5019730;28;20025;-81
2021/05/25 08:00:21;;;;;;;7.35;1.30;;;;;;;;;;5019074;28;20033;-81
2021/05/25 08:02:47;;;;;;;3.55;0.98;;;;;;;;;;5035595;28;20112;-80
2021/05/25 08:05:13;;;;;;;3.83;1.17;;;;;;;;;;5052052;28;20089;-81
2021/05/25 08:07:39;;;;;;;6.95;1.58;;;;;;;;;;5052344;28;20057;-82
2021/05/25 08:10:05;;;;;;;5.40;1.90;;;;;;;;;;5035575;28;20140;-82
2021/05/25 08:12:31;;;;;;;3.92;0.80;;;;;;;;;;5051873;28;20029;-83
2021/05/25 08:14:58;;;;;;;4.10;0.70;;;;;;;;;;5052017;28;20044;-81
2021/05/25 08:17:50;;;;;;;3.92;1.40;;;;;;;;;;5026889;28;20072;-81
2021/05/25 08:20:19;;;;;;;4.57;1.00;;;;;;;;;;5036576;28;20792;-83
2021/05/25 08:22:52;;;;;;;4.80;1.45;;;;;;;;;;5031794;28;20495;-80
2021/05/25 08:25:19;;;;;;;9.52;1.00;;;;;;;;;;5064544;28;20080;-81
2021/05/25 08:27:46;;;;;;;6.50;1.08;;;;;;;;;;5048346;28;20040;-78
2021/05/25 08:30:12;;;;;;;5.20;1.35;;;;;;;;;;5031796;28;20038;-80
2021/05/25 08:32:37;;;;;;;7.63;1.50;;;;;;;;;;5064951;28;20084;-83
2021/05/25 08:35:04;;;;;;;12.77;2.38;;;;;;;;;;5048318;28;20033;-79
2021/05/25 08:37:32;;;;;;;14.82;3.00;;;;;;;;;;5051118;28;20037;-80
2021/05/25 08:39:57;;;;;;;14.13;3.45;;;;;;;;;;5035353;28;20056;-78
2021/05/25 08:42:23;;;;;;;11.55;2.30;;;;;;;;;;5051500;28;20049;-77
2021/05/25 08:44:48;;;;;;;12.27;2.75;;;;;;;;;;5051080;28;20040;-79
2021/05/25 08:47:13;;;;;;;11.23;3.58;;;;;;;;;;5051829;28;20372;-82
2021/05/25 08:49:40;;;;;;;26.20;3.90;;;;;;;;;;5024992;28;20171;-84
2021/05/25 08:52:06;;;;;;;8.20;1.83;;;;;;;;;;5081476;28;20072;-80
2021/05/25 08:54:31;;;;;;;5.95;1.58;;;;;;;;;;5067097;28;20040;-80
2021/05/25 08:56:57;;;;;;;10.10;1.88;;;;;;;;;;5034516;28;20518;-80
2021/05/25 08:59:22;;;;;;;6.28;1.77;;;;;;;;;;5017842;28;20041;-80
2021/05/25 09:01:49;;;;;;;5.57;1.48;;;;;;;;;;5028391;28;20037;-80
2021/05/25 09:04:15;;;;;;;4.60;1.15;;;;;;;;;;5037342;28;20037;-79
2021/05/25 09:06:44;;;;;;;6.47;0.98;;;;;;;;;;5071190;28;20032;-80
2021/05/25 09:09:11;;;;;;;3.78;0.90;;;;;;;;;;5070935;28;20437;-80
2021/05/25 09:12:04;;;;;;;5.55;1.02;;;;;;;;;;5054409;28;20131;-79
2021/05/25 09:14:32;;;;;;;1.55;0.75;;;;;;;;;;5063179;28;20029;-79
2021/05/25 09:17:16;;;;;;;3.30;1.00;;;;;;;;;;5018434;28;20115;-79
2021/05/25 09:19:46;;;;;;;6.22;1.52;;;;;;;;;;5050391;28;20048;-79
2021/05/25 09:22:30;;;;;;;5.70;1.92;;;;;;;;;;5034004;28;20032;-79
2021/05/25 09:24:55;;;;;;;9.57;4.28;;;;;;;;;;5050873;28;20045;-82
2021/05/25 09:27:37;;;;;;;10.18;3.50;;;;;;;;;;5017600;28;20048;-84
2021/05/25 09:30:19;;;;;;;7.20;3.42;;;;;;;;;;5034222;28;20530;-82
2021/05/25 09:32:46;;;;;;;7.47;2.83;;;;;;;;;;5034060;28;20035;-81
2021/05/25 09:35:15;;;;;;;7.18;2.70;;;;;;;;;;5039040;28;20120;-82
2021/05/25 09:37:42;;;;;;;7.38;2.50;;;;;;;;;;5025049;28;20136;-84
2021/05/25 09:40:08;;;;;;;7.68;2.50;;;;;;;;;;5041519;28;20051;-84
2021/05/25 09:42:34;;;;;;;8.18;2.58;;;;;;;;;;5047952;28;20040;-85
2021/05/25 09:45:02;;;;;;;5.90;2.15;;;;;;;;;;5050586;28;20033;-83
2021/05/25 09:47:53;;;;;;;6.00;2.30;;;;;;;;;;5050471;28;20517;-82
2021/05/25 09:50:20;;;;;;;6.30;2.13;;;;;;;;;;5032379;28;20040;-82
2021/05/25 09:53:03;;;;;;;5.10;1.67;;;;;;;;;;5052360;28;20029;-82
2021/05/25 09:55:29;;;;;;;6.32;1.52;;;;;;;;;;5086922;28;20037;-81
2021/05/25 09:57:55;;;;;;;4.90;1.63;;;;;;;;;;5053555;28;20039;-81
2021/05/25 10:00:29;;;;;;;2.78;1.33;;;;;;;;;;5042389;28;20048;-81
2021/05/25 10:03:24;;;;;;;4.43;1.10;;;;;;;;;;5029997;28;20045;-82
2021/05/25 10:05:51;;;;;;;4.35;1.50;;;;;;;;;;5031201;28;20388;-82
2021/05/25 10:08:17;;;;;;;2.75;0.95;;;;;;;;;;5044567;28;20034;-82
2021/05/25 10:10:43;;;;;;;3.10;1.13;;;;;;;;;;5066619;28;20029;-82
2021/05/25 10:13:09;;;;;;;4.45;2.20;;;;;;;;;;5017104;28;20041;-82
2021/05/25 10:15:36;;;;;;;5.80;1.10;;;;;;;;;;5016875;28;20033;-89
2021/05/25 10:20:27;;;;;;;4.05;1.17;;;;;;;;;;5050491;28;20056;-87
2021/05/25 10:22:56;;;;;;;2.67;0.93;;;;;;;;;;5017722;28;20044;-89
2021/05/25 10:25:25;;;;;;;2.97;1.00;;;;;;;;;;5018237;28;20132;-88
2021/05/25 10:27:50;;;;;;;3.95;1.08;;;;;;;;;;5018450;28;20029;-88
2021/05/25 10:30:22;;;;;;;4.70;0.95;;;;;;;;;;5033883;28;20060;-82
2021/05/25 10:32:52;;;;;;;2.92;0.75;;;;;;;;;;5033263;28;20491;-82
2021/05/25 10:35:19;;;;;;;2.28;0.88;;;;;;;;;;5033268;28;20032;-82
2021/05/25 10:38:04;;;;;;;2.83;1.20;;;;;;;;;;5013146;28;20038;-82
2021/05/25 10:40:37;;;;;;;3.42;0.68;;;;;;;;;;5046567;28;20088;-81
2021/05/25 10:43:30;;;;;;;4.65;0.75;;;;;;;;;;5046939;28;20120;-81
2021/05/25 10:46:11;;;;;;;1.60;0.60;;;;;;;;;;5063031;28;20038;-81
2021/05/25 10:49:04;;;;;;;3.00;0.70;;;;;;;;;;5063826;28;20539;-82
2021/05/25 10:51:54;;;;;;;5.60;2.70;;;;;;;;;;5029586;28;20519;-80
2021/05/25 10:54:34;;;;;;;9.00;4.68;;;;;;;;;;5078068;28;20037;-81
2021/05/25 10:57:24;;;;;;;6.55;2.83;;;;;;;;;;5017526;28;20123;-81
2021/05/25 11:00:04;;;;;;;6.72;1.98;;;;;;;;;;5018560;28;20499;-81
2021/05/25 11:02:46;;;;;;;5.75;0.93;;;;;;;;;;5066448;28;20057;-81
2021/05/25 11:05:26;;;;;;;6.22;1.08;;;;;;;;;;5049627;28;20091;-80
2021/05/25 11:07:52;;;;;;;3.30;1.08;;;;;;;;;;5049549;28;20075;-81
2021/05/25 11:10:27;;;;;;;5.20;0.82;;;;;;;;;;5016765;28;20065;-81
2021/05/25 11:13:17;;;;;;;4.65;1.60;;;;;;;;;;5033148;28;20503;-81
2021/05/25 11:16:03;;;;;;;3.65;0.70;;;;;;;;;;5047172;28;20081;-81
2021/05/25 11:18:38;;;;;;;4.13;1.10;;;;;;;;;;5023284;28;20041;-82
2021/05/25 11:23:50;;;;;;;2.78;0.70;;;;;;;;;;5063808;28;20526;-81
2021/05/25 11:26:55;;;;;;;3.10;0.60;;;;;;;;;;5058833;28;20072;-81
2021/05/25 11:29:24;;;;;;;4.90;0.80;;;;;;;;;;5054219;28;20033;-81
2021/05/25 11:31:50;;;;;;;3.08;0.57;;;;;;;;;;5018290;28;20061;-81
2021/05/25 11:34:19;;;;;;;3.00;0.35;;;;;;;;;;5055641;28;20080;-81
2021/05/25 11:36:44;;;;;;;3.80;0.55;;;;;;;;;;5019483;28;20040;-81
2021/05/25 11:39:10;;;;;;;3.15;0.50;;;;;;;;;;5035636;28;20033;-81
2021/05/25 11:41:36;;;;;;;3.13;1.10;;;;;;;;;;5056257;28;20404;-81
2021/05/25 11:44:10;;;;;;;2.58;0.52;;;;;;;;;;5018559;28;20228;-81
2021/05/25 11:46:42;;;;;;;2.75;0.50;;;;;;;;;;5035874;28;20470;-81
2021/05/25 11:49:07;;;;;;;6.47;0.73;;;;;;;;;;5035795;28;20040;-81
2021/05/25 11:51:33;;;;;;;2.83;0.50;;;;;;;;;;5019609;28;20504;-81
2021/05/25 11:54:14;;;;;;;4.32;0.80;;;;;;;;;;5047991;28;20028;-81
2021/05/25 11:56:43;;;;;;;3.92;0.70;;;;;;;;;;5065186;28;20089;-82
2021/05/25 11:59:13;;;;;;;2.45;0.70;;;;;;;;;;5032806;28;20033;-81
2021/05/25 12:01:53;;;;;;;2.38;0.50;;;;;;;;;;5009710;28;20116;-81
2021/05/25 12:04:22;;;;;;;2.67;0.70;;;;;;;;;;5036066;28;20036;-81
2021/05/25 12:06:49;;;;;;;5.95;1.55;;;;;;;;;;5035600;28;20044;-81
2021/05/25 12:09:15;;;;;;;6.05;2.60;;;;;;;;;;5035612;28;20061;-81
2021/05/25 12:11:42;;;;;;;4.75;1.90;;;;;;;;;;5052404;28;20041;-81
2021/05/25 12:14:09;;;;;;;7.80;3.10;;;;;;;;;;5044149;28;20575;-79
2021/05/25 12:16:35;;;;;;;6.90;2.38;;;;;;;;;;5019081;28;20029;-79
2021/05/25 12:19:00;;;;;;;7.45;2.70;;;;;;;;;;5035381;28;20039;-79
2021/05/25 12:21:26;;;;;;;7.75;2.20;;;;;;;;;;5035357;28;20419;-79
2021/05/25 12:23:51;;;;;;;7.22;2.42;;;;;;;;;;5018449;28;20055;-79
2021/05/25 12:26:19;;;;;;;5.93;2.13;;;;;;;;;;5068355;28;20035;-79
2021/05/25 12:28:47;;;;;;;4.85;2.13;;;;;;;;;;5018956;28;20025;-79
2021/05/25 12:31:13;;;;;;;5.40;1.83;;;;;;;;;;5015151;28;20045;-79
2021/05/25 12:33:39;;;;;;;6.03;1.17;;;;;;;;;;5048907;28;20411;-79
2021/05/25 12:36:37;;;;;;;6.03;1.77;;;;;;;;;;5064898;28;20048;-79
2021/05/25 12:39:06;;;;;;;3.60;1.15;;;;;;;;;;5062298;28;20099;-79
2021/05/25 12:41:53;;;;;;;2.70;1.02;;;;;;;;;;5064732;28;20043;-79
2021/05/25 12:44:21;;;;;;;5.03;0.80;;;;;;;;;;5047678;28;20083;-80
2021/05/25 12:46:52;;;;;;;4.35;1.13;;;;;;;;;;5031418;28;20542;-79
2021/05/25 12:49:38;;;;;;;3.15;0.82;;;;;;;;;;5067308;28;20087;-78
2021/05/25 12:52:25;;;;;;;3.03;0.60;;;;;;;;;;5034809;28;20067;-79
2021/05/25 12:55:06;;;;;;;2.55;0.70;;;;;;;;;;5018032;28;20372;-79
2021/05/25 12:57:45;;;;;;;4.55;1.13;;;;;;;;;;5034979;28;20127;-79
2021/05/25 13:00:12;;;;;;;3.83;0.80;;;;;;;;;;5034563;28;20032;-78
2021/05/25 13:02:46;;;;;;;5.78;0.70;;;;;;;;;;5068244;28;20109;-78
2021/05/25 13:05:13;;;;;;;5.05;0.70;;;;;;;;;;5054766;28;20517;-78
2021/05/25 13:07:50;;;;;;;3.78;0.75;;;;;;;;;;5071284;28;20037;-77
2021/05/25 13:10:25;;;;;;;4.65;0.77;;;;;;;;;;5039677;28;20495;-78
2021/05/25 13:12:51;;;;;;;2.15;0.47;;;;;;;;;;5034530;28;20044;-81
2021/05/25 13:15:16;;;;;;;3.05;0.30;;;;;;;;;;5051216;28;20041;-79
2021/05/25 13:17:53;;;;;;;2.85;0.60;;;;;;;;;;5031107;28;20045;-78
2021/05/25 13:20:20;;;;;;;5.55;0.68;;;;;;;;;;5030111;28;20030;-79
2021/05/25 13:22:45;;;;;;;2.95;0.50;;;;;;;;;;5063737;28;20030;-78
2021/05/25 13:25:13;;;;;;;2.88;0.40;;;;;;;;;;5062481;28;20064;-78
2021/05/25 13:27:38;;;;;;;2.22;0.47;;;;;;;;;;5064038;28;20033;-79
2021/05/25 13:30:09;;;;;;;2.70;0.50;;;;;;;;;;5062286;28;20060;-78
2021/05/25 13:32:35;;;;;;;1.98;0.30;;;;;;;;;;5064869;28;20033;-79
2021/05/25 13:35:06;;;;;;;3.53;1.02;;;;;;;;;;5034119;28;20099;-79
2021/05/25 13:37:33;;;;;;;2.30;0.40;;;;;;;;;;5017069;28;20045;-79
2021/05/25 13:40:00;;;;;;;1.83;0.60;;;;;;;;;;5017334;28;20090;-79
2021/05/25 13:42:25;;;;;;;2.22;0.40;;;;;;;;;;5033298;28;20514;-78
2021/05/25 13:44:51;;;;;;;2.22;0.30;;;;;;;;;;5033264;28;20037;-78
2021/05/25 13:47:16;;;;;;;2.78;0.50;;;;;;;;;;5017719;28;20044;-79
2021/05/25 13:49:45;;;;;;;1.73;0.55;;;;;;;;;;5033605;28;20166;-79
2021/05/25 13:52:10;;;;;;;0.82;0.20;;;;;;;;;;5034592;28;20447;-80
2021/05/25 13:54:36;;;;;;;2.35;0.50;;;;;;;;;;5033308;28;20029;-79
2021/05/25 13:57:02;;;;;;;3.08;0.75;;;;;;;;;;5066961;28;20052;-85
2021/05/25 14:02:02;;;;;;;4.90;0.70;;;;;;;;;;5051409;28;20128;-84
2021/05/25 14:04:28;;;;;;;2.55;0.60;;;;;;;;;;5034458;28;20037;-84
2021/05/25 14:06:54;;;;;;;2.25;0.40;;;;;;;;;;5017014;28;20029;-82
2021/05/25 14:09:21;;;;;;;3.17;0.70;;;;;;;;;;5017371;28;20067;-81
2021/05/25 14:11:47;;;;;;;2.45;0.60;;;;;;;;;;5017611;28;20048;-82
2021/05/25 14:14:12;;;;;;;3.55;0.70;;;;;;;;;;5017365;28;20037;-81
2021/05/25 14:16:38;;;;;;;4.10;0.70;;;;;;;;;;5032376;28;20400;-80
2021/05/25 14:19:03;;;;;;;2.53;0.63;;;;;;;;;;5032931;28;20033;-80
2021/05/25 14:21:29;;;;;;;3.13;0.90;;;;;;;;;;5049686;28;20049;-80
2021/05/25 14:23:54;;;;;;;2.78;0.60;;;;;;;;;;5028073;28;20044;-82
2021/05/25 14:26:20;;;;;;;2.67;0.70;;;;;;;;;;5027789;28;20416;-81
2021/05/25 14:28:46;;;;;;;2.70;0.60;;;;;;;;;;5027883;28;20041;-81
2021/05/25 14:31:11;;;;;;;1.83;0.63;;;;;;;;;;5013363;28;20458;-81
2021/05/25 14:33:37;;;;;;;3.20;0.50;;;;;;;;;;5030119;28;20041;-81
2021/05/25 14:36:04;;;;;;;3.58;0.80;;;;;;;;;;5033686;28;20195;-80
2021/05/25 14:38:29;;;;;;;2.28;0.47;;;;;;;;;;5038208;28;20083;-80
2021/05/25 14:40:56;;;;;;;3.55;0.55;;;;;;;;;;5026403;28;20041;-80
2021/05/25 14:43:21;;;;;;;1.67;0.50;;;;;;;;;;5031976;28;20033;-80
2021/05/25 14:45:46;;;;;;;1.92;0.40;;;;;;;;;;5031871;28;20403;-80
2021/05/25 14:48:12;;;;;;;1.80;0.35;;;;;;;;;;5033192;28;20419;-81
2021/05/25 14:50:38;;;;;;;2.67;0.50;;;;;;;;;;5063570;28;20510;-80
2021/05/25 14:55:45;;;;;;;3.03;0.40;;;;;;;;;;5080163;28;20414;-80
2021/05/25 14:58:12;;;;;;;1.90;0.40;;;;;;;;;;5049100;28;20107;-80